createdAt,value
2022-09-13T00:00:03.627Z,2.92
2022-09-13T00:05:05.354Z,2.70
2022-09-13T00:10:07.169Z,3.35
2022-09-13T00:15:09.041Z,3.35
2022-09-13T00:20:10.592Z,3.83
2022-09-13T00:25:12.145Z,3.20
2022-09-13T00:30:13.966Z,3.08
2022-09-13T00:35:15.443Z,2.95
2022-09-13T00:40:17.043Z,3.35
2022-09-13T00:45:18.834Z,4.13
2022-09-13T00:50:20.188Z,2.92
2022-09-13T00:55:31.348Z,3.67
2022-09-13T01:00:32.818Z,3.85
2022-09-13T01:05:38.176Z,3.42
2022-09-13T01:10:41.739Z,2.75
2022-09-13T01:15:43.298Z,1.30
2022-09-13T01:21:06.270Z,1.92
2022-09-13T01:26:24.746Z,1.30
2022-09-13T01:31:44.598Z,2.03
2022-09-13T01:37:07.254Z,1.25
2022-09-13T01:42:24.096Z,1.30
2022-09-13T01:47:47.179Z,1.75
2022-09-13T01:53:11.349Z,1.50
2022-09-13T01:58:31.270Z,1.88
2022-09-13T02:03:36.651Z,1.02
2022-09-13T02:08:45.264Z,1.50
2022-09-13T02:13:53.896Z,2.10
2022-09-13T02:18:59.026Z,1.50
2022-09-13T02:24:06.076Z,1.70
2022-09-13T02:29:09.376Z,1.30
2022-09-13T02:34:14.236Z,1.02
2022-09-13T02:39:16.665Z,0.85
2022-09-13T02:44:31.933Z,1.20
2022-09-13T02:49:46.980Z,1.42
2022-09-13T02:59:52.494Z,1.30
2022-09-13T03:04:53.974Z,0.88
2022-09-13T03:09:58.847Z,1.85
2022-09-13T03:15:37.079Z,1.42
2022-09-13T03:20:46.743Z,2.22
2022-09-13T03:26:05.261Z,1.13
2022-09-13T03:31:12.811Z,1.38
2022-09-13T03:36:42.966Z,1.88
2022-09-13T03:41:47.768Z,1.50
2022-09-13T03:46:50.552Z,1.52
2022-09-13T03:51:52.796Z,1.40
2022-09-13T04:02:11.709Z,1.20
2022-09-13T04:07:16.868Z,1.60
2022-09-13T04:12:18.987Z,1.55
2022-09-13T04:17:21.518Z,1.00
2022-09-13T04:22:22.982Z,1.30
2022-09-13T04:27:25.663Z,1.10
2022-09-13T04:32:27.131Z,1.23
2022-09-13T04:37:28.628Z,1.77
2022-09-13T04:42:30.103Z,1.13
2022-09-13T04:47:31.573Z,1.20
2022-09-13T04:52:33.610Z,0.90
2022-09-13T04:57:35.075Z,1.45
2022-09-13T05:02:36.823Z,1.50
2022-09-13T05:07:38.320Z,1.08
2022-09-13T05:12:39.773Z,1.42
2022-09-13T05:17:41.271Z,1.13
2022-09-13T05:22:42.785Z,1.20
2022-09-13T05:27:45.512Z,0.85
2022-09-13T05:32:46.976Z,0.90
2022-09-13T05:37:49.512Z,1.40
2022-09-13T05:42:52.977Z,0.80
2022-09-13T05:47:54.443Z,1.00
2022-09-13T05:52:56.102Z,1.05
2022-09-13T05:57:58.295Z,1.38
2022-09-13T06:02:59.847Z,1.83
2022-09-13T06:08:01.422Z,1.38
2022-09-13T06:13:02.925Z,1.35
2022-09-13T06:18:04.483Z,1.00
2022-09-13T06:23:05.994Z,1.45
2022-09-13T06:28:07.612Z,1.25
2022-09-13T06:33:09.083Z,1.17
2022-09-13T06:38:10.611Z,1.00
2022-09-13T06:43:12.083Z,1.60
2022-09-13T06:48:13.562Z,1.15
2022-09-13T06:53:15.046Z,1.42
2022-09-13T06:58:16.552Z,1.38
2022-09-13T07:03:18.044Z,1.10
2022-09-13T07:08:19.553Z,1.20
2022-09-13T07:13:21.041Z,1.40
2022-09-13T07:18:22.522Z,1.40
2022-09-13T07:23:23.982Z,1.52
2022-09-13T07:28:27.475Z,1.58
2022-09-13T07:33:29.102Z,1.30
2022-09-13T07:38:30.628Z,1.40
2022-09-13T07:43:35.742Z,1.23
2022-09-13T07:48:38.357Z,1.30
2022-09-13T07:53:40.507Z,1.50
2022-09-13T08:03:44.361Z,1.30
2022-09-13T08:08:45.879Z,1.20
2022-09-13T08:13:47.543Z,1.25
2022-09-13T08:18:50.492Z,2.13
2022-09-13T08:24:00.405Z,1.30
2022-09-13T08:29:03.974Z,0.88
2022-09-13T08:34:05.455Z,1.38
2022-09-13T08:39:06.981Z,1.05
2022-09-13T08:44:18.806Z,1.00
2022-09-13T08:49:27.557Z,1.38
2022-09-13T08:54:29.044Z,1.13
2022-09-13T09:00:08.147Z,1.00
2022-09-13T09:05:18.522Z,2.10
2022-09-13T09:10:22.074Z,1.05
2022-09-13T09:15:34.673Z,1.10
2022-09-13T09:20:53.154Z,1.05
2022-09-13T09:26:11.418Z,1.13
2022-09-13T09:31:22.304Z,1.30
2022-09-13T09:36:44.563Z,1.20
2022-09-13T09:41:46.068Z,1.20
2022-09-13T09:47:11.924Z,1.20
2022-09-13T09:52:14.714Z,1.15
2022-09-13T09:57:18.742Z,0.98
2022-09-13T10:02:20.500Z,1.60
2022-09-13T10:07:33.434Z,1.70
2022-09-13T10:12:36.297Z,1.10
2022-09-13T10:17:37.773Z,1.42
2022-09-13T10:22:39.274Z,1.27
2022-09-13T10:27:42.804Z,1.25
2022-09-13T10:32:44.279Z,1.30
2022-09-13T10:37:45.799Z,1.08
2022-09-13T10:42:53.112Z,1.33
2022-09-13T10:48:03.303Z,1.48
2022-09-13T10:53:05.592Z,1.50
2022-09-13T10:58:07.327Z,1.65
2022-09-13T11:03:46.639Z,1.48
2022-09-13T11:09:13.101Z,1.67
2022-09-13T11:14:45.696Z,1.75
2022-09-13T11:19:56.781Z,1.95
2022-09-13T11:25:16.982Z,1.60
2022-09-13T11:30:25.380Z,1.60
2022-09-13T11:35:56.990Z,1.02
2022-09-13T11:41:05.623Z,1.65
2022-09-13T11:46:12.931Z,1.60
2022-09-13T11:51:45.729Z,1.17
2022-09-13T11:56:50.195Z,1.60
2022-09-13T12:01:58.825Z,1.55
2022-09-13T12:07:02.768Z,1.10
2022-09-13T12:12:05.364Z,0.82
2022-09-13T12:17:09.992Z,1.58
2022-09-13T12:22:12.778Z,1.35
2022-09-13T12:27:40.360Z,1.60
2022-09-13T12:38:22.383Z,0.90
2022-09-13T12:43:26.765Z,1.00
2022-09-13T12:48:50.263Z,1.00
2022-09-13T12:54:05.581Z,1.00
2022-09-13T12:59:19.422Z,1.77
2022-09-13T13:04:28.982Z,1.02
2022-09-13T13:09:44.436Z,0.85
2022-09-13T13:14:46.759Z,1.17
2022-09-13T13:19:48.260Z,1.23
2022-09-13T13:24:49.799Z,0.95
2022-09-13T13:30:28.850Z,1.05
2022-09-13T13:35:32.261Z,1.00
2022-09-13T13:40:33.769Z,0.60
2022-09-13T13:45:35.314Z,0.65
2022-09-13T13:51:09.809Z,0.93
2022-09-13T13:56:40.380Z,0.75
2022-09-13T14:01:46.888Z,0.88
2022-09-13T14:07:19.414Z,0.85
2022-09-13T14:12:30.700Z,1.00
2022-09-13T14:17:38.002Z,0.98
2022-09-13T14:22:39.471Z,1.40
2022-09-13T14:27:41.547Z,0.80
2022-09-13T14:32:44.232Z,0.80
2022-09-13T14:37:45.709Z,1.00
2022-09-13T14:42:48.086Z,0.88
2022-09-13T14:47:57.680Z,1.27
2022-09-13T14:53:01.471Z,0.98
2022-09-13T14:58:05.349Z,0.70
2022-09-13T15:03:12.717Z,0.70
2022-09-13T15:08:32.295Z,1.00
2022-09-13T15:13:33.874Z,0.90
2022-09-13T15:18:37.082Z,1.25
2022-09-13T15:23:40.506Z,1.35
2022-09-13T15:28:44.827Z,1.15
2022-09-13T15:33:49.367Z,1.15
2022-09-13T15:39:09.443Z,1.02
2022-09-13T15:44:10.915Z,0.73
2022-09-13T15:49:15.555Z,0.60
2022-09-13T15:54:17.535Z,0.80
2022-09-13T15:59:20.607Z,0.85
2022-09-13T16:04:22.089Z,0.77
2022-09-13T16:09:24.946Z,1.05
2022-09-13T16:14:26.491Z,0.95
2022-09-13T16:19:28.298Z,0.70
2022-09-13T16:24:29.913Z,0.70
2022-09-13T16:29:31.394Z,0.90
2022-09-13T16:34:32.891Z,1.17
2022-09-13T16:39:34.401Z,0.90
2022-09-13T16:44:36.019Z,1.33
2022-09-13T16:49:37.503Z,1.25
2022-09-13T16:54:39.142Z,0.73
2022-09-13T16:59:43.453Z,1.35
2022-09-13T17:04:45.525Z,1.13
2022-09-13T17:09:47.169Z,1.30
2022-09-13T17:14:50.535Z,1.20
2022-09-13T17:19:52.572Z,1.67
2022-09-13T17:24:54.059Z,1.80
2022-09-13T17:29:55.674Z,1.52
2022-09-13T17:34:57.158Z,1.80
2022-09-13T17:39:58.781Z,1.55
2022-09-13T17:45:00.319Z,1.40
2022-09-13T17:50:02.202Z,2.15
2022-09-13T17:55:04.049Z,1.25
2022-09-13T18:00:08.576Z,1.45
2022-09-13T18:05:13.585Z,1.92
2022-09-13T18:10:38.710Z,1.52
2022-09-13T18:15:37.158Z,1.98
2022-09-13T18:20:40.790Z,1.52
2022-09-13T18:25:42.666Z,1.88
2022-09-13T18:30:51.989Z,1.40
2022-09-13T18:36:00.855Z,1.90
2022-09-13T18:41:06.586Z,1.48
2022-09-13T18:46:09.545Z,2.25
2022-09-13T18:51:12.337Z,1.40
2022-09-13T18:56:15.187Z,2.10
2022-09-13T19:01:28.073Z,2.08
2022-09-13T19:06:37.194Z,1.25
2022-09-13T19:11:48.909Z,1.08
2022-09-13T19:16:51.550Z,1.33
2022-09-13T19:26:54.414Z,1.98
2022-09-13T19:31:56.085Z,1.20
2022-09-13T19:36:58.377Z,1.25
2022-09-13T19:42:00.439Z,1.48
2022-09-13T19:52:25.461Z,1.38
2022-09-13T19:57:26.971Z,1.55
2022-09-13T20:02:28.454Z,1.80
2022-09-13T20:07:29.935Z,1.30
2022-09-13T20:12:31.646Z,1.30
2022-09-13T20:17:33.568Z,1.40
2022-09-13T20:22:35.049Z,1.27
2022-09-13T20:27:38.600Z,1.30
2022-09-13T20:32:40.151Z,1.35
2022-09-13T20:37:45.114Z,1.73
2022-09-13T20:42:46.812Z,1.85
2022-09-13T20:47:48.399Z,1.50
2022-09-13T20:52:50.139Z,1.67
2022-09-13T20:57:51.602Z,1.70
2022-09-13T21:02:53.158Z,1.50
2022-09-13T21:08:13.316Z,1.50
2022-09-13T21:13:14.782Z,1.63
2022-09-13T21:18:17.771Z,1.63
2022-09-13T21:23:19.240Z,2.08
2022-09-13T21:28:20.718Z,1.40
2022-09-13T21:33:22.217Z,1.80
2022-09-13T21:38:27.463Z,2.90
2022-09-13T21:43:29.016Z,1.95
2022-09-13T21:48:31.723Z,2.00
2022-09-13T21:53:37.361Z,1.75
2022-09-13T21:58:38.973Z,1.52
2022-09-13T22:03:41.627Z,1.50
2022-09-13T22:08:44.499Z,1.60
2022-09-13T22:13:46.123Z,1.60
2022-09-13T22:18:48.764Z,1.77
2022-09-13T22:23:50.304Z,1.58
2022-09-13T22:28:52.846Z,2.50
2022-09-13T22:33:55.355Z,1.38
2022-09-13T22:38:56.829Z,1.35
2022-09-13T22:43:58.966Z,1.40
2022-09-13T22:49:00.653Z,1.20
2022-09-13T22:54:06.428Z,1.65
2022-09-13T22:59:12.856Z,1.02
2022-09-13T23:04:14.578Z,1.23
2022-09-13T23:09:18.036Z,1.40
2022-09-13T23:14:20.100Z,1.15
2022-09-13T23:19:22.507Z,1.33
2022-09-13T23:24:24.689Z,1.17
2022-09-13T23:29:26.211Z,1.30
2022-09-13T23:34:27.683Z,1.30
2022-09-13T23:39:29.182Z,1.20
2022-09-13T23:44:32.603Z,1.10
2022-09-13T23:49:34.146Z,1.02
2022-09-13T23:54:35.627Z,1.75
2022-09-13T23:59:37.159Z,1.73
